To NAV CANADA Home Page Login to a new session Search on AWWS site Feedback and Comments Disclaimer Vers la page française équivalente Tips FAQ What's new on the site To the Forecasts and Observations / NOTAM section To "File a Flight Plan" website Publications and other links Update of the User's profile FIC Telephone Numbers My Weather Data Folder Route Weather Data Regional Weather Data Local Weather Data To the Forecasts and Observations / NOTAM section
Request Generated 08/28/2016 at 20:33:43 UTC . Weather information available at that time is displayed.

METAR/TAF

THOMPSON/MB    

METAR CYTH 282000Z 17007KT 110V220 15SM FEW020 BKN100 BKN170 OVC210
22/14 A2988 RMK SC1AC4AC2CI1 SLP125 DENSITY ALT 1700FT=
METAR CYTH 281900Z 16009G17KT 080V210 15SM FEW020 BKN140 OVC210 23/12
A2987 RMK SC1AC5CI2 SLP123 DENSITY ALT 1900FT=
METAR CYTH 281800Z 14006G15KT 090V210 15SM FEW020 SCT140 BKN200
OVC230 22/13 A2988 RMK SC1AC2CC2CI3 SLP124 DENSITY ALT 1700FT=

TAF CYTH 281838Z 2819/2907 14012KT P6SM FEW020 BKN140
FM282100 16012G22KT P6SM BKN080 TEMPO 2821/2823 P6SM -SHRA
FM282300 15008KT P6SM SCT020 OVC040 TEMPO 2823/2907 P6SM -SHRA
OVC020
RMK NXT FCST BY 290100Z=
Your time UTC time
Weather data provided by Environment Canada and NAV CANADA